createdAt,value
2023-04-18T00:00:00.717Z,15.60
2023-04-18T00:01:00.687Z,18.50
2023-04-18T00:02:00.783Z,17.30
2023-04-18T00:03:03.337Z,17.30
2023-04-18T00:04:00.756Z,17.30
2023-04-18T00:05:00.719Z,17.30
2023-04-18T00:06:00.626Z,17.40
2023-04-18T00:07:00.644Z,16.60
2023-04-18T00:08:00.615Z,17.60
2023-04-18T00:09:00.643Z,16.60
2023-04-18T00:10:00.591Z,17.00
2023-04-18T00:11:00.573Z,16.60
2023-04-18T00:12:00.549Z,17.10
2023-04-18T00:13:00.557Z,17.00
2023-04-18T00:14:00.535Z,17.20
2023-04-18T00:15:00.532Z,18.30
2023-04-18T00:16:00.511Z,16.90
2023-04-18T00:17:00.543Z,16.60
2023-04-18T00:18:00.520Z,16.40
2023-04-18T00:19:00.470Z,17.50
2023-04-18T00:20:00.464Z,17.70
2023-04-18T00:21:00.448Z,16.70
2023-04-18T00:22:00.421Z,17.90
2023-04-18T00:23:00.414Z,16.70
2023-04-18T00:24:00.411Z,18.50
2023-04-18T00:25:00.405Z,18.00
2023-04-18T00:26:00.372Z,18.10
2023-04-18T00:27:00.392Z,18.50
2023-04-18T00:28:00.344Z,20.50
2023-04-18T00:29:00.332Z,18.80
2023-04-18T00:30:00.359Z,17.90
2023-04-18T00:31:00.386Z,20.10
2023-04-18T00:32:00.300Z,18.10
2023-04-18T00:33:00.421Z,17.80
2023-04-18T00:34:00.271Z,17.20
2023-04-18T00:35:00.281Z,15.60
2023-04-18T00:36:00.258Z,17.20
2023-04-18T00:37:00.244Z,16.30
2023-04-18T00:38:00.213Z,16.00
2023-04-18T00:39:00.241Z,15.80
2023-04-18T00:40:00.245Z,16.30
2023-04-18T00:41:00.201Z,16.30
2023-04-18T00:42:00.166Z,17.10
2023-04-18T00:43:00.149Z,17.00
2023-04-18T00:44:00.181Z,15.20
2023-04-18T00:45:00.200Z,15.80
2023-04-18T00:46:00.166Z,15.90
2023-04-18T00:47:00.153Z,15.60
2023-04-18T00:48:00.185Z,16.70
2023-04-18T00:49:00.129Z,15.90
2023-04-18T00:50:00.091Z,15.90
2023-04-18T00:51:00.086Z,17.40
2023-04-18T00:52:00.071Z,16.10
2023-04-18T00:53:00.034Z,15.60
2023-04-18T00:54:00.009Z,17.90
2023-04-18T00:55:00.026Z,17.30
2023-04-18T00:56:00.041Z,16.60
2023-04-18T00:56:59.992Z,16.30
2023-04-18T00:57:59.960Z,15.60
2023-04-18T00:58:59.958Z,15.90
2023-04-18T00:59:59.953Z,17.20
2023-04-18T01:00:59.939Z,17.30
2023-04-18T01:01:59.993Z,16.20
2023-04-18T01:03:57.931Z,15.70
2023-04-18T01:04:58.796Z,17.30
2023-04-18T01:05:58.780Z,17.50
2023-04-18T01:06:58.762Z,17.40
2023-04-18T01:07:58.784Z,15.80
2023-04-18T01:08:58.761Z,17.20
2023-04-18T01:09:58.728Z,17.20
2023-04-18T01:10:58.770Z,17.20
2023-04-18T01:11:58.703Z,17.80
2023-04-18T01:12:58.695Z,17.50
2023-04-18T01:13:58.680Z,17.60
2023-04-18T01:14:58.696Z,16.70
2023-04-18T01:15:58.727Z,18.10
2023-04-18T01:16:58.689Z,16.60
2023-04-18T01:17:58.669Z,16.00
2023-04-18T01:18:58.617Z,15.90
2023-04-18T01:19:58.596Z,15.60
2023-04-18T01:20:58.651Z,15.90
2023-04-18T01:21:58.580Z,14.80
2023-04-18T01:22:58.588Z,15.60
2023-04-18T01:23:58.554Z,16.60
2023-04-18T01:24:58.544Z,16.30
2023-04-18T01:25:58.532Z,15.70
2023-04-18T01:26:58.544Z,15.20
2023-04-18T01:27:58.515Z,15.30
2023-04-18T01:28:58.503Z,15.10
2023-04-18T01:29:58.472Z,14.80
2023-04-18T01:30:58.480Z,16.40
2023-04-18T01:31:58.496Z,15.80
2023-04-18T01:32:58.492Z,15.40
2023-04-18T01:33:58.426Z,15.50
2023-04-18T01:34:58.473Z,15.40
2023-04-18T01:35:58.410Z,15.20
2023-04-18T01:36:58.381Z,14.30
2023-04-18T01:37:58.392Z,15.60
2023-04-18T01:38:58.367Z,14.90
2023-04-18T01:39:58.352Z,15.00
2023-04-18T01:40:58.374Z,16.70
2023-04-18T01:41:58.326Z,15.80
2023-04-18T01:42:58.307Z,16.20
2023-04-18T01:43:58.294Z,16.30
2023-04-18T01:44:58.328Z,15.40
2023-04-18T01:45:58.285Z,17.60
2023-04-18T01:46:58.387Z,16.20
2023-04-18T01:47:58.306Z,16.20
2023-04-18T01:48:58.239Z,15.70
2023-04-18T01:49:58.224Z,16.40
2023-04-18T01:50:58.248Z,16.60
2023-04-18T01:51:58.217Z,16.80
2023-04-18T01:52:58.188Z,15.50
2023-04-18T01:53:58.180Z,17.40
2023-04-18T01:54:58.184Z,16.30
2023-04-18T01:55:58.147Z,16.40
2023-04-18T01:56:58.168Z,16.60
2023-04-18T01:57:58.133Z,17.10
2023-04-18T01:58:58.121Z,16.80
2023-04-18T01:59:58.087Z,16.90
2023-04-18T02:00:58.081Z,17.40
2023-04-18T02:01:58.159Z,16.70
2023-04-18T02:02:58.237Z,17.20
2023-04-18T02:03:58.142Z,16.90
2023-04-18T02:04:58.031Z,17.60
2023-04-18T02:05:58.017Z,18.10
2023-04-18T02:06:57.990Z,17.00
2023-04-18T02:07:58.014Z,18.60
2023-04-18T02:08:57.991Z,19.40
2023-04-18T02:09:57.985Z,18.40
2023-04-18T02:10:57.988Z,16.90
2023-04-18T02:11:57.926Z,19.50
2023-04-18T02:12:57.951Z,19.30
2023-04-18T02:13:57.970Z,19.00
2023-04-18T02:14:57.905Z,19.00
2023-04-18T02:15:57.942Z,18.20
2023-04-18T02:16:58.114Z,18.30
2023-04-18T02:17:57.878Z,19.10
2023-04-18T02:18:57.946Z,18.60
2023-04-18T02:19:57.869Z,18.80
2023-04-18T02:20:57.873Z,18.40
2023-04-18T02:21:57.839Z,18.80
2023-04-18T02:22:57.842Z,19.40
2023-04-18T02:23:57.800Z,20.80
2023-04-18T02:24:57.801Z,19.10
2023-04-18T02:25:57.772Z,19.70
2023-04-18T02:26:57.783Z,18.50
2023-04-18T02:27:57.760Z,20.00
2023-04-18T02:28:57.728Z,20.40
2023-04-18T02:29:57.717Z,20.10
2023-04-18T02:30:57.715Z,20.70
2023-04-18T02:31:57.735Z,19.60
2023-04-18T02:32:57.698Z,21.30
2023-04-18T02:33:57.674Z,19.80
2023-04-18T02:34:57.668Z,21.30
2023-04-18T02:35:57.716Z,20.70
2023-04-18T02:36:57.663Z,20.70
2023-04-18T02:37:57.620Z,21.10
2023-04-18T02:38:57.659Z,20.30
2023-04-18T02:39:57.594Z,20.80
2023-04-18T02:40:57.578Z,23.10
2023-04-18T02:41:57.562Z,20.80
2023-04-18T02:42:57.556Z,22.10
2023-04-18T02:43:57.524Z,21.60
2023-04-18T02:44:57.571Z,22.00
2023-04-18T02:45:57.539Z,22.30
2023-04-18T02:46:57.552Z,21.90
2023-04-18T02:47:57.539Z,22.10
2023-04-18T02:48:57.474Z,22.50
2023-04-18T02:49:57.491Z,22.20
2023-04-18T02:50:57.541Z,21.40
2023-04-18T02:51:57.434Z,23.00
2023-04-18T02:52:57.403Z,22.00
2023-04-18T02:53:57.403Z,20.10
2023-04-18T02:54:57.399Z,22.80
2023-04-18T02:55:57.399Z,23.30
2023-04-18T02:56:57.393Z,22.30
2023-04-18T02:57:57.399Z,24.90
2023-04-18T02:58:57.340Z,23.60
2023-04-18T02:59:57.365Z,25.70
2023-04-18T03:00:57.348Z,26.10
2023-04-18T03:01:57.420Z,24.70
2023-04-18T03:02:57.342Z,27.70
2023-04-18T03:03:57.263Z,26.40
2023-04-18T03:04:57.279Z,28.00
2023-04-18T03:05:57.261Z,28.90
2023-04-18T03:06:57.237Z,28.90
2023-04-18T03:07:57.228Z,29.70
2023-04-18T03:08:57.247Z,28.00
2023-04-18T03:09:57.244Z,29.10
2023-04-18T03:10:57.224Z,32.20
2023-04-18T03:11:57.186Z,32.40
2023-04-18T03:12:57.148Z,33.20
2023-04-18T03:13:57.162Z,34.40
2023-04-18T03:14:57.182Z,33.60
2023-04-18T03:15:57.207Z,37.40
2023-04-18T03:16:57.128Z,36.80
2023-04-18T03:17:57.186Z,37.70
2023-04-18T03:18:57.102Z,35.70
2023-04-18T03:19:57.073Z,34.30
2023-04-18T03:20:57.084Z,34.00
2023-04-18T03:21:57.055Z,33.30
2023-04-18T03:22:57.064Z,33.30
2023-04-18T03:23:57.015Z,31.20
2023-04-18T03:24:57.008Z,30.60
2023-04-18T03:25:57.004Z,32.00
2023-04-18T03:26:56.988Z,32.20
2023-04-18T03:27:56.967Z,30.50
2023-04-18T03:28:56.974Z,32.80
2023-04-18T03:29:56.961Z,31.10
2023-04-18T03:30:56.976Z,33.10
2023-04-18T03:31:56.953Z,30.60
2023-04-18T03:32:57.012Z,29.50
2023-04-18T03:33:56.913Z,29.80
2023-04-18T03:34:56.889Z,34.50
2023-04-18T03:35:56.880Z,31.70
2023-04-18T03:36:56.863Z,31.90
2023-04-18T03:37:56.900Z,29.20
2023-04-18T03:38:56.854Z,32.00
2023-04-18T03:39:56.815Z,31.10
2023-04-18T03:40:56.823Z,29.70
2023-04-18T03:41:56.827Z,29.50
2023-04-18T03:42:56.854Z,31.40
2023-04-18T03:43:56.753Z,32.90
2023-04-18T03:44:56.843Z,30.30
2023-04-18T03:45:56.814Z,30.50
2023-04-18T03:46:56.752Z,31.10
2023-04-18T03:47:56.793Z,30.10
2023-04-18T03:48:56.748Z,30.70
2023-04-18T03:49:56.726Z,31.30
2023-04-18T03:50:56.721Z,31.20
2023-04-18T03:51:56.684Z,32.00
2023-04-18T03:52:56.653Z,30.70
2023-04-18T03:53:56.645Z,30.60
2023-04-18T03:54:56.640Z,30.10
2023-04-18T03:55:56.632Z,30.70
2023-04-18T03:56:56.620Z,31.20
2023-04-18T03:57:56.591Z,32.20
2023-04-18T03:58:56.577Z,32.00
2023-04-18T03:59:56.598Z,29.60
2023-04-18T04:00:56.586Z,31.10
2023-04-18T04:01:56.640Z,29.60
2023-04-18T04:02:56.897Z,29.30
2023-04-18T04:03:56.605Z,30.90
2023-04-18T04:04:56.553Z,30.40
2023-04-18T04:05:56.508Z,29.50
2023-04-18T04:06:56.480Z,29.40
2023-04-18T04:07:56.557Z,30.50
2023-04-18T04:08:56.465Z,31.50
2023-04-18T04:09:56.436Z,30.70
2023-04-18T04:10:56.435Z,30.30
2023-04-18T04:11:56.452Z,32.40
2023-04-18T04:12:56.438Z,29.10
2023-04-18T04:13:56.406Z,30.80
2023-04-18T04:14:56.370Z,30.40
2023-04-18T04:15:56.497Z,30.80
2023-04-18T04:16:56.433Z,31.50
2023-04-18T04:17:56.368Z,29.20
2023-04-18T04:18:56.342Z,30.40
2023-04-18T04:19:56.323Z,32.20
2023-04-18T04:20:56.308Z,32.60
2023-04-18T04:21:56.303Z,31.40
2023-04-18T04:22:56.325Z,30.00
2023-04-18T04:23:56.268Z,29.80
2023-04-18T04:24:56.340Z,31.40
2023-04-18T04:25:56.299Z,30.10
2023-04-18T04:26:56.236Z,31.20
2023-04-18T04:27:56.275Z,30.40
2023-04-18T04:28:56.205Z,32.60
2023-04-18T04:29:56.174Z,33.40
2023-04-18T04:30:56.217Z,31.40
2023-04-18T04:31:56.198Z,32.60
2023-04-18T04:32:56.202Z,30.30
2023-04-18T04:33:56.144Z,30.10
2023-04-18T04:34:56.128Z,29.80
2023-04-18T04:35:56.128Z,29.00
2023-04-18T04:36:56.093Z,31.10
2023-04-18T04:37:56.084Z,32.00
2023-04-18T04:38:56.106Z,32.30
2023-04-18T04:39:56.109Z,32.60
2023-04-18T04:40:56.036Z,32.10
2023-04-18T04:41:56.124Z,34.20
2023-04-18T04:42:56.007Z,34.00
2023-04-18T04:43:56.014Z,32.80
2023-04-18T04:44:56.045Z,33.40
2023-04-18T04:45:56.110Z,32.80
2023-04-18T04:46:56.004Z,32.50
2023-04-18T04:47:55.979Z,30.00
2023-04-18T04:48:55.956Z,30.60
2023-04-18T04:49:56.003Z,33.20
2023-04-18T04:50:55.945Z,31.70
2023-04-18T04:51:55.944Z,29.80
2023-04-18T04:52:55.902Z,29.20
2023-04-18T04:53:55.922Z,31.00
2023-04-18T04:54:55.915Z,29.50
2023-04-18T04:55:55.887Z,29.50
2023-04-18T04:56:55.860Z,32.50
2023-04-18T04:57:55.829Z,31.50
2023-04-18T04:58:55.832Z,28.70
2023-04-18T04:59:55.810Z,30.60
2023-04-18T05:00:55.876Z,28.90
2023-04-18T05:01:55.810Z,31.10
2023-04-18T05:02:55.910Z,31.30
2023-04-18T05:03:55.966Z,30.50
2023-04-18T05:04:55.747Z,30.00
2023-04-18T05:05:55.725Z,28.90
2023-04-18T05:06:55.721Z,31.80
2023-04-18T05:07:55.725Z,29.40
2023-04-18T05:08:55.706Z,29.30
2023-04-18T05:09:55.680Z,29.80
2023-04-18T05:10:55.661Z,30.10
2023-04-18T05:11:55.706Z,27.20
2023-04-18T05:12:55.683Z,28.60
2023-04-18T05:13:55.652Z,30.40
2023-04-18T05:14:55.630Z,29.80
2023-04-18T05:15:55.660Z,26.60
2023-04-18T05:16:55.689Z,29.60
2023-04-18T05:17:55.575Z,28.40
2023-04-18T05:18:55.578Z,28.90
2023-04-18T05:19:55.634Z,26.80
2023-04-18T05:20:55.534Z,26.60
2023-04-18T05:21:55.581Z,26.10
2023-04-18T05:22:55.521Z,25.70
2023-04-18T05:23:55.500Z,26.20
2023-04-18T05:24:55.549Z,26.60
2023-04-18T05:25:55.514Z,26.80
2023-04-18T05:26:55.477Z,27.20
2023-04-18T05:27:55.444Z,26.60
2023-04-18T05:28:55.477Z,27.40
2023-04-18T05:29:55.454Z,24.90
2023-04-18T05:30:55.534Z,24.10
2023-04-18T05:31:55.431Z,24.80
2023-04-18T05:32:55.474Z,23.60
2023-04-18T05:33:55.413Z,22.00
2023-04-18T05:34:55.385Z,24.80
2023-04-18T05:35:55.392Z,23.40
2023-04-18T05:36:55.349Z,22.80
2023-04-18T05:37:55.344Z,24.80
2023-04-18T05:38:55.329Z,23.50
2023-04-18T05:39:56.039Z,21.60
2023-04-18T05:40:55.289Z,22.50
2023-04-18T05:41:55.272Z,20.50
2023-04-18T05:42:55.276Z,21.70
2023-04-18T05:44:16.750Z,22.40
2023-04-18T05:44:55.273Z,21.80
2023-04-18T05:45:57.754Z,22.00
2023-04-18T05:46:55.207Z,21.20
2023-04-18T05:47:55.452Z,22.10
2023-04-18T05:48:55.221Z,22.80
2023-04-18T05:49:55.208Z,20.80
2023-04-18T05:50:55.158Z,20.90
2023-04-18T05:51:55.179Z,21.00
2023-04-18T05:52:55.132Z,21.20
2023-04-18T05:53:55.116Z,21.70
2023-04-18T05:54:55.101Z,21.90
2023-04-18T05:55:55.113Z,21.70
2023-04-18T05:56:55.123Z,23.00
2023-04-18T05:57:55.057Z,22.20
2023-04-18T05:58:55.068Z,22.00
2023-04-18T05:59:55.184Z,21.60
2023-04-18T06:00:55.141Z,20.60
2023-04-18T06:01:55.096Z,21.50
2023-04-18T06:02:55.266Z,21.90
2023-04-18T06:03:55.230Z,22.40
2023-04-18T06:04:55.403Z,23.50
2023-04-18T06:05:55.055Z,22.10
2023-04-18T06:06:54.970Z,22.30
2023-04-18T06:07:54.993Z,21.50
2023-04-18T06:08:54.940Z,22.90
2023-04-18T06:09:54.961Z,22.50
2023-04-18T06:10:54.960Z,23.40
2023-04-18T06:11:54.900Z,24.20
2023-04-18T06:12:54.943Z,22.90
2023-04-18T06:13:54.889Z,22.80
2023-04-18T06:14:54.871Z,23.60
2023-04-18T06:15:54.959Z,23.70
2023-04-18T06:16:54.857Z,22.80
2023-04-18T06:17:54.880Z,23.10
2023-04-18T06:18:55.008Z,23.40
2023-04-18T06:19:55.519Z,26.10
2023-04-18T06:20:54.824Z,23.60
2023-04-18T06:21:54.765Z,24.50
2023-04-18T06:22:54.822Z,25.20
2023-04-18T06:23:55.127Z,24.40
2023-04-18T06:24:54.737Z,26.90
2023-04-18T06:25:54.755Z,25.00
2023-04-18T06:26:54.756Z,25.90
2023-04-18T06:27:54.684Z,24.30
2023-04-18T06:28:54.728Z,24.60
2023-04-18T06:29:54.696Z,25.00
2023-04-18T06:30:54.740Z,23.90
2023-04-18T06:31:54.696Z,24.80
2023-04-18T06:32:54.689Z,25.30
2023-04-18T06:33:54.617Z,24.80
2023-04-18T06:34:54.602Z,25.40
2023-04-18T06:35:54.585Z,23.90
2023-04-18T06:36:54.597Z,24.40
2023-04-18T06:37:54.565Z,24.30
2023-04-18T06:38:54.539Z,26.30
2023-04-18T06:39:56.729Z,25.50
2023-04-18T06:40:54.528Z,25.30
2023-04-18T06:41:54.523Z,24.30
2023-04-18T06:42:54.540Z,27.30
2023-04-18T06:44:03.271Z,26.30
2023-04-18T06:44:54.528Z,24.30
2023-04-18T06:45:54.497Z,24.50
2023-04-18T06:46:54.457Z,24.90
2023-04-18T06:47:54.457Z,26.80
2023-04-18T06:48:54.443Z,24.70
2023-04-18T06:49:54.409Z,25.20
2023-04-18T06:50:54.401Z,25.20
2023-04-18T06:51:54.404Z,27.10
2023-04-18T06:52:54.380Z,25.40
2023-04-18T06:53:54.356Z,25.30
2023-04-18T06:54:54.389Z,26.30
2023-04-18T06:55:54.337Z,26.40
2023-04-18T06:56:54.344Z,26.50
2023-04-18T06:57:54.307Z,27.90
2023-04-18T06:58:54.297Z,25.70
2023-04-18T06:59:54.285Z,25.20
2023-04-18T07:00:54.334Z,26.60
2023-04-18T07:01:54.293Z,28.10
2023-04-18T07:02:54.319Z,25.70
2023-04-18T07:03:54.354Z,25.30
2023-04-18T07:04:54.225Z,25.20
2023-04-18T07:05:54.191Z,25.80
2023-04-18T07:06:54.217Z,26.00
2023-04-18T07:07:54.200Z,27.10
2023-04-18T07:08:54.521Z,24.20
2023-04-18T07:09:54.145Z,23.70
2023-04-18T07:10:54.132Z,24.60
2023-04-18T07:11:54.150Z,24.80
2023-04-18T07:12:54.179Z,24.80
2023-04-18T07:13:54.088Z,25.90
2023-04-18T07:14:54.078Z,26.10
2023-04-18T07:15:54.072Z,25.70
2023-04-18T07:16:54.097Z,23.50
2023-04-18T07:17:54.075Z,25.10
2023-04-18T07:18:54.061Z,24.80
2023-04-18T07:19:54.051Z,23.40
2023-04-18T07:20:54.005Z,26.80
2023-04-18T07:21:54.001Z,24.90
2023-04-18T07:22:53.996Z,25.00
2023-04-18T07:23:53.962Z,24.90
2023-04-18T07:24:54.002Z,24.30
2023-04-18T07:25:53.945Z,22.90
2023-04-18T07:26:55.144Z,26.10
2023-04-18T07:27:53.904Z,24.20
2023-04-18T07:28:53.945Z,23.60
2023-04-18T07:29:53.879Z,24.80
2023-04-18T07:30:53.946Z,24.00
2023-04-18T07:31:53.880Z,23.90
2023-04-18T07:32:53.917Z,24.50
2023-04-18T07:33:53.867Z,23.30
2023-04-18T07:34:53.839Z,23.00
2023-04-18T07:35:53.836Z,22.70
2023-04-18T07:36:53.821Z,21.80
2023-04-18T07:37:53.849Z,22.00
2023-04-18T07:38:53.788Z,23.60
2023-04-18T07:39:53.779Z,21.50
2023-04-18T07:40:53.764Z,21.60
2023-04-18T07:41:53.757Z,21.80
2023-04-18T07:42:53.765Z,22.50
2023-04-18T07:43:53.791Z,22.30
2023-04-18T07:44:53.711Z,22.80
2023-04-18T07:45:53.766Z,21.60
2023-04-18T07:46:53.677Z,23.20
2023-04-18T07:47:53.705Z,22.70
2023-04-18T07:48:53.721Z,21.50
2023-04-18T07:49:53.654Z,21.50
2023-04-18T07:50:53.611Z,21.50
2023-04-18T07:51:53.611Z,21.00
2023-04-18T07:52:53.605Z,21.90
2023-04-18T07:53:53.608Z,23.00
2023-04-18T07:54:53.565Z,23.30
2023-04-18T07:55:53.547Z,21.40
2023-04-18T07:56:53.577Z,21.90
2023-04-18T07:57:53.540Z,23.30
2023-04-18T07:58:53.544Z,22.40
2023-04-18T07:59:53.500Z,20.20
2023-04-18T08:00:53.487Z,21.00
2023-04-18T08:01:53.502Z,20.90
2023-04-18T08:02:53.628Z,20.40
2023-04-18T08:03:53.594Z,21.30
2023-04-18T08:04:53.778Z,20.60
2023-04-18T08:05:53.464Z,21.20
2023-04-18T08:06:53.415Z,19.10
2023-04-18T08:07:53.404Z,19.20
2023-04-18T08:08:53.383Z,21.70
2023-04-18T08:09:53.395Z,22.50
2023-04-18T08:10:53.377Z,20.90
2023-04-18T08:11:53.353Z,21.70
2023-04-18T08:12:53.447Z,20.70
2023-04-18T08:13:53.334Z,21.50
2023-04-18T08:14:53.405Z,21.40
2023-04-18T08:15:53.348Z,21.50
2023-04-18T08:16:53.332Z,22.10
2023-04-18T08:17:53.303Z,22.60
2023-04-18T08:18:53.266Z,21.70
2023-04-18T08:19:53.296Z,20.80
2023-04-18T08:20:53.246Z,20.90
2023-04-18T08:21:53.223Z,21.20
2023-04-18T08:23:06.312Z,22.50
2023-04-18T08:23:53.212Z,22.00
2023-04-18T08:25:53.175Z,22.20
2023-04-18T08:26:53.148Z,21.80
2023-04-18T08:27:53.255Z,22.10
2023-04-18T08:28:53.145Z,21.00
2023-04-18T08:29:53.115Z,23.20
2023-04-18T08:30:53.108Z,22.40
2023-04-18T08:31:53.168Z,21.70
2023-04-18T08:32:53.178Z,22.30
2023-04-18T08:33:53.133Z,21.80
2023-04-18T08:34:53.083Z,22.10
2023-04-18T08:35:53.040Z,22.70
2023-04-18T08:36:53.064Z,23.00
2023-04-18T08:37:53.047Z,23.30
2023-04-18T08:38:53.010Z,22.20
2023-04-18T08:39:53.056Z,23.30
2023-04-18T08:40:52.986Z,22.80
2023-04-18T08:41:52.965Z,22.50
2023-04-18T08:42:52.969Z,22.70
2023-04-18T08:43:53.843Z,22.90
2023-04-18T08:44:52.931Z,24.20
2023-04-18T08:45:53.036Z,22.90
2023-04-18T08:46:52.916Z,23.30
2023-04-18T08:47:53.072Z,25.90
2023-04-18T08:48:52.881Z,23.70
2023-04-18T08:49:52.875Z,22.40
2023-04-18T08:50:52.879Z,22.40
2023-04-18T08:51:52.857Z,21.80
2023-04-18T08:52:52.842Z,23.50
2023-04-18T08:53:52.832Z,22.50
2023-04-18T08:54:52.814Z,23.90
2023-04-18T08:55:52.829Z,22.90
2023-04-18T08:56:52.772Z,23.10
2023-04-18T08:57:52.788Z,22.60
2023-04-18T08:58:52.765Z,21.30
2023-04-18T08:59:52.735Z,22.10
2023-04-18T09:00:52.795Z,22.70
2023-04-18T09:01:52.884Z,24.20
2023-04-18T09:02:52.785Z,22.60
2023-04-18T09:03:52.816Z,24.70
2023-04-18T09:04:52.774Z,23.90
2023-04-18T09:05:52.672Z,22.80
2023-04-18T09:06:52.740Z,22.70
2023-04-18T09:07:52.665Z,21.40
2023-04-18T09:08:52.642Z,22.50
2023-04-18T09:09:52.672Z,21.30
2023-04-18T09:10:52.687Z,23.50
2023-04-18T09:11:52.575Z,22.70
2023-04-18T09:12:52.625Z,22.50
2023-04-18T09:13:52.619Z,21.20
2023-04-18T09:14:52.539Z,21.50
2023-04-18T09:15:52.562Z,21.40
2023-04-18T09:16:52.628Z,21.80
2023-04-18T09:17:52.654Z,21.60
2023-04-18T09:18:52.521Z,22.40
2023-04-18T09:19:52.505Z,22.70
2023-04-18T09:20:52.502Z,21.10
2023-04-18T09:21:52.473Z,21.80
2023-04-18T09:22:52.460Z,21.40
2023-04-18T09:23:52.455Z,21.40
2023-04-18T09:24:52.494Z,19.30
2023-04-18T09:25:52.417Z,19.20
2023-04-18T09:26:52.417Z,19.10
2023-04-18T09:27:52.387Z,21.10
2023-04-18T09:28:53.834Z,19.90
2023-04-18T09:29:52.358Z,19.50
2023-04-18T09:30:52.430Z,19.60
2023-04-18T09:31:52.327Z,17.00
2023-04-18T09:32:52.410Z,17.90
2023-04-18T09:33:52.307Z,18.30
2023-04-18T09:34:52.272Z,18.70
2023-04-18T09:35:52.288Z,19.60
2023-04-18T09:36:52.287Z,17.90
2023-04-18T09:37:52.284Z,17.80
2023-04-18T09:38:55.374Z,17.70
2023-04-18T09:39:52.244Z,17.30
2023-04-18T09:40:52.234Z,18.20
2023-04-18T09:41:52.224Z,16.10
2023-04-18T09:42:52.208Z,16.20
2023-04-18T09:43:52.210Z,16.10
2023-04-18T09:44:52.155Z,15.50
2023-04-18T09:45:52.175Z,15.00
2023-04-18T09:46:52.141Z,16.50
2023-04-18T09:47:52.168Z,15.20
2023-04-18T09:48:52.122Z,15.20
2023-04-18T09:49:52.132Z,14.00
2023-04-18T09:50:52.105Z,14.00
2023-04-18T09:51:52.135Z,14.80
2023-04-18T09:52:52.122Z,14.20
2023-04-18T09:53:52.056Z,13.40
2023-04-18T09:54:52.036Z,13.20
2023-04-18T09:55:52.026Z,14.60
2023-04-18T09:56:51.985Z,13.10
2023-04-18T09:57:52.013Z,13.60
2023-04-18T09:58:52.013Z,14.70
2023-04-18T09:59:51.960Z,13.80
2023-04-18T10:00:51.986Z,13.30
2023-04-18T10:01:51.974Z,12.50
2023-04-18T10:02:52.004Z,12.60
2023-04-18T10:03:52.032Z,12.90
2023-04-18T10:04:52.060Z,13.70
2023-04-18T10:05:51.933Z,12.20
2023-04-18T10:06:51.931Z,13.70
2023-04-18T10:07:51.855Z,11.80
2023-04-18T10:08:51.882Z,12.80
2023-04-18T10:09:51.830Z,12.30
2023-04-18T10:10:51.871Z,12.80
2023-04-18T10:11:51.801Z,14.30
2023-04-18T10:12:51.861Z,13.20
2023-04-18T10:13:51.810Z,13.30
2023-04-18T10:14:51.862Z,14.00
2023-04-18T10:15:51.833Z,13.10
2023-04-18T10:16:51.761Z,12.10
2023-04-18T10:18:03.459Z,14.40
2023-04-18T10:18:51.802Z,14.90
2023-04-18T10:19:51.748Z,15.60
2023-04-18T10:20:51.690Z,15.70
2023-04-18T10:21:51.691Z,12.50
2023-04-18T10:22:51.721Z,13.50
2023-04-18T10:23:51.665Z,13.40
2023-04-18T10:24:51.712Z,14.00
2023-04-18T10:25:51.706Z,12.50
2023-04-18T10:26:51.645Z,11.90
2023-04-18T10:27:51.609Z,13.00
2023-04-18T10:28:51.608Z,11.90
2023-04-18T10:29:51.651Z,12.00
2023-04-18T10:30:51.604Z,12.00
2023-04-18T10:31:51.709Z,11.30
2023-04-18T10:32:51.613Z,11.90
2023-04-18T10:34:03.313Z,11.80
2023-04-18T10:34:51.594Z,11.20
2023-04-18T10:35:51.561Z,12.80
2023-04-18T10:36:51.506Z,11.50
2023-04-18T10:37:52.439Z,10.90
2023-04-18T10:38:51.483Z,12.00
2023-04-18T10:39:51.513Z,12.00
2023-04-18T10:40:51.446Z,13.80
2023-04-18T10:41:51.741Z,12.50
2023-04-18T10:42:51.431Z,11.80
2023-04-18T10:43:51.487Z,13.30
2023-04-18T10:44:51.408Z,13.30
2023-04-18T10:45:51.409Z,16.00
2023-04-18T10:46:51.494Z,13.50
2023-04-18T10:47:51.481Z,13.10
2023-04-18T10:48:51.368Z,12.70
2023-04-18T10:49:51.394Z,25.60
2023-04-18T10:50:51.352Z,34.10
2023-04-18T10:51:51.320Z,14.20
2023-04-18T10:52:51.315Z,14.00
2023-04-18T10:53:51.316Z,12.90
2023-04-18T10:54:51.293Z,13.30
2023-04-18T10:55:51.311Z,12.60
2023-04-18T10:56:51.280Z,12.90
2023-04-18T10:57:51.257Z,14.40
2023-04-18T10:58:51.535Z,25.20
2023-04-18T10:59:51.240Z,15.90
2023-04-18T11:00:51.267Z,15.20
2023-04-18T11:01:51.207Z,14.50
2023-04-18T11:02:51.394Z,14.00
2023-04-18T11:03:51.237Z,14.60
2023-04-18T11:04:51.158Z,14.10
2023-04-18T11:05:51.172Z,16.20
2023-04-18T11:06:51.152Z,15.40
2023-04-18T11:07:51.169Z,13.30
2023-04-18T11:08:51.133Z,14.10
2023-04-18T11:09:51.103Z,14.40
2023-04-18T11:10:51.076Z,14.70
2023-04-18T11:11:51.101Z,14.20
2023-04-18T11:12:51.099Z,13.40
2023-04-18T11:13:51.065Z,11.70
2023-04-18T11:14:51.048Z,12.00
2023-04-18T11:15:51.015Z,12.70
2023-04-18T11:16:51.122Z,13.20
2023-04-18T11:17:51.190Z,14.20
2023-04-18T11:18:51.101Z,13.50
2023-04-18T11:19:50.994Z,13.60
2023-04-18T11:20:51.007Z,12.00
2023-04-18T11:21:50.991Z,12.20
2023-04-18T11:22:50.949Z,12.80
2023-04-18T11:23:50.944Z,12.60
2023-04-18T11:24:50.960Z,12.90
2023-04-18T11:25:50.956Z,11.80
2023-04-18T11:26:50.904Z,11.90
2023-04-18T11:27:50.869Z,13.60
2023-04-18T11:28:50.902Z,11.90
2023-04-18T11:29:50.901Z,12.40
2023-04-18T11:30:50.900Z,12.60
2023-04-18T11:31:50.863Z,12.10
2023-04-18T11:32:50.822Z,11.40
2023-04-18T11:33:50.806Z,11.10
2023-04-18T11:34:50.797Z,12.60
2023-04-18T11:35:50.778Z,13.10
2023-04-18T11:36:50.754Z,11.20
2023-04-18T11:37:50.761Z,12.40
2023-04-18T11:38:50.727Z,11.30
2023-04-18T11:39:50.789Z,11.20
2023-04-18T11:40:50.983Z,12.80
2023-04-18T11:41:50.722Z,11.80
2023-04-18T11:42:50.712Z,13.00
2023-04-18T11:43:50.680Z,12.00
2023-04-18T11:44:50.672Z,11.10
2023-04-18T11:45:50.782Z,11.40
2023-04-18T11:46:50.653Z,12.10
2023-04-18T11:47:50.693Z,11.90
2023-04-18T11:48:50.677Z,11.70
2023-04-18T11:49:50.659Z,11.80
2023-04-18T11:50:50.675Z,11.90
2023-04-18T11:51:50.564Z,11.90
2023-04-18T11:52:50.578Z,11.70
2023-04-18T11:53:50.608Z,11.80
2023-04-18T11:54:50.541Z,10.10
2023-04-18T11:55:50.515Z,10.50
2023-04-18T11:56:50.523Z,10.00
2023-04-18T11:57:50.496Z,11.10
2023-04-18T11:58:50.519Z,10.50
2023-04-18T11:59:50.504Z,11.10
2023-04-18T12:00:50.464Z,10.10
2023-04-18T12:01:50.445Z,11.00
2023-04-18T12:02:50.611Z,11.10
2023-04-18T12:03:50.818Z,10.70
2023-04-18T12:04:50.737Z,10.40
2023-04-18T12:05:50.616Z,10.80
2023-04-18T12:06:51.983Z,10.70
2023-04-18T12:07:50.370Z,9.20
2023-04-18T12:08:51.232Z,9.00
2023-04-18T12:09:50.368Z,10.20
2023-04-18T12:10:50.361Z,9.30
2023-04-18T12:11:50.318Z,9.50
2023-04-18T12:12:50.344Z,10.20
2023-04-18T12:13:50.328Z,9.20
2023-04-18T12:14:50.298Z,10.00
2023-04-18T12:15:50.302Z,10.60
2023-04-18T12:16:50.314Z,10.90
2023-04-18T12:17:50.297Z,10.70
2023-04-18T12:18:50.238Z,11.80
2023-04-18T12:19:50.239Z,11.30
2023-04-18T12:20:50.574Z,12.80
2023-04-18T12:21:50.230Z,11.80
2023-04-18T12:22:50.224Z,12.00
2023-04-18T12:23:50.181Z,10.50
2023-04-18T12:24:50.181Z,11.60
2023-04-18T12:25:50.145Z,11.30
2023-04-18T12:26:50.140Z,10.90
2023-04-18T12:27:50.137Z,10.60
2023-04-18T12:28:50.174Z,10.90
2023-04-18T12:29:50.148Z,10.60
2023-04-18T12:30:50.078Z,10.00
2023-04-18T12:31:50.131Z,10.30
2023-04-18T12:32:50.174Z,10.80
2023-04-18T12:33:50.069Z,10.00
2023-04-18T12:34:50.076Z,11.00
2023-04-18T12:35:50.018Z,10.80
2023-04-18T12:36:49.996Z,10.70
2023-04-18T12:37:50.003Z,10.30
2023-04-18T12:38:50.003Z,10.90
2023-04-18T12:39:49.992Z,10.90
2023-04-18T12:40:49.968Z,10.10
2023-04-18T12:41:50.159Z,10.50
2023-04-18T12:42:49.940Z,11.20
2023-04-18T12:43:49.963Z,10.70
2023-04-18T12:44:49.943Z,11.10
2023-04-18T12:45:49.930Z,9.80
2023-04-18T12:46:49.912Z,9.30
2023-04-18T12:47:49.942Z,9.50
2023-04-18T12:48:49.850Z,10.70
2023-04-18T12:49:49.838Z,9.10
2023-04-18T12:50:49.858Z,10.20
2023-04-18T12:51:49.833Z,9.60
2023-04-18T12:52:49.830Z,9.80
2023-04-18T12:53:49.817Z,11.00
2023-04-18T12:54:49.808Z,10.70